createdAt,value
2023-01-15T00:01:51.259Z,50.40
2023-01-15T00:04:44.473Z,50.40
2023-01-15T00:07:39.331Z,50.30
2023-01-15T00:10:32.630Z,50.30
2023-01-15T00:13:28.813Z,50.40
2023-01-15T00:16:24.766Z,50.30
2023-01-15T00:19:17.982Z,50.30
2023-01-15T00:22:11.156Z,50.30
2023-01-15T00:25:24.190Z,50.40
2023-01-15T00:28:17.276Z,50.40
2023-01-15T00:31:10.183Z,50.30
2023-01-15T00:34:03.183Z,50.30
2023-01-15T00:36:58.217Z,50.30
2023-01-15T00:39:51.072Z,50.30
2023-01-15T00:42:53.881Z,50.30
2023-01-15T00:45:48.167Z,50.30
2023-01-15T00:48:41.196Z,50.30
2023-01-15T00:51:34.109Z,50.30
2023-01-15T00:54:27.289Z,50.30
2023-01-15T00:57:20.164Z,50.30
2023-01-15T01:00:15.640Z,50.30
2023-01-15T01:03:09.257Z,50.30
2023-01-15T01:06:03.473Z,50.30
2023-01-15T01:08:57.184Z,50.40
2023-01-15T01:11:50.709Z,50.30
2023-01-15T01:14:44.661Z,50.40
2023-01-15T01:17:39.822Z,50.30
2023-01-15T01:20:34.606Z,50.40
2023-01-15T01:23:29.561Z,50.40
2023-01-15T01:26:23.284Z,51.60
2023-01-15T01:29:18.170Z,51.00
2023-01-15T01:32:11.217Z,51.50
2023-01-15T01:35:06.328Z,51.20
2023-01-15T01:37:59.259Z,51.20
2023-01-15T01:40:52.186Z,51.70
2023-01-15T01:43:57.677Z,51.20
2023-01-15T01:46:51.409Z,51.10
2023-01-15T01:49:45.716Z,51.10
2023-01-15T01:52:45.313Z,51.20
2023-01-15T01:55:39.423Z,51.30
2023-01-15T01:58:35.000Z,51.30
2023-01-15T02:01:28.376Z,51.30
2023-01-15T02:04:23.955Z,51.40
2023-01-15T02:07:18.301Z,51.50
2023-01-15T02:10:17.253Z,51.60
2023-01-15T02:13:15.781Z,51.60
2023-01-15T02:16:17.884Z,51.70
2023-01-15T02:19:23.553Z,51.70
2023-01-15T02:22:25.658Z,51.70
2023-01-15T02:25:26.964Z,51.80
2023-01-15T02:28:25.349Z,51.90
2023-01-15T02:31:23.635Z,52.00
2023-01-15T02:34:23.233Z,52.10
2023-01-15T02:37:21.360Z,52.10
2023-01-15T02:40:15.796Z,52.20
2023-01-15T02:43:10.356Z,52.20
2023-01-15T02:46:06.297Z,52.30
2023-01-15T02:49:00.899Z,52.30
2023-01-15T02:52:00.219Z,52.30
2023-01-15T02:54:58.877Z,52.30
2023-01-15T02:57:56.886Z,52.20
2023-01-15T03:00:53.629Z,52.20
2023-01-15T03:03:56.280Z,52.20
2023-01-15T03:06:54.323Z,52.20
2023-01-15T03:09:48.096Z,52.20
2023-01-15T03:13:07.212Z,52.20
2023-01-15T03:16:21.926Z,52.20
2023-01-15T03:19:24.198Z,52.20
2023-01-15T03:22:22.645Z,52.30
2023-01-15T03:25:21.847Z,52.30
2023-01-15T03:28:17.559Z,52.20
2023-01-15T03:31:10.158Z,52.20
2023-01-15T03:34:03.656Z,52.20
2023-01-15T03:36:58.394Z,52.20
2023-01-15T03:39:52.189Z,52.10
2023-01-15T03:43:12.618Z,52.20
2023-01-15T03:46:27.592Z,52.20
2023-01-15T03:49:27.294Z,52.20
2023-01-15T03:52:31.439Z,52.20
2023-01-15T03:55:29.262Z,52.10
2023-01-15T03:58:27.870Z,52.10
2023-01-15T04:01:25.760Z,52.00
2023-01-15T04:04:19.488Z,51.90
2023-01-15T04:07:12.874Z,51.90
2023-01-15T04:10:10.955Z,51.90
2023-01-15T04:13:04.331Z,52.00
2023-01-15T04:15:57.652Z,52.00
2023-01-15T04:18:53.743Z,51.90
2023-01-15T04:21:47.064Z,51.80
2023-01-15T04:24:40.603Z,51.70
2023-01-15T04:27:35.003Z,51.70
2023-01-15T04:30:28.475Z,51.70
2023-01-15T04:33:21.292Z,51.60
2023-01-15T04:36:14.806Z,51.40
2023-01-15T04:39:07.998Z,51.40
2023-01-15T04:42:18.800Z,51.30
2023-01-15T04:45:13.578Z,51.40
2023-01-15T04:48:06.676Z,51.30
2023-01-15T04:51:03.781Z,51.30
2023-01-15T04:53:56.996Z,51.40
2023-01-15T04:56:52.548Z,51.40
2023-01-15T04:59:45.549Z,51.30
2023-01-15T05:02:39.809Z,51.20
2023-01-15T05:05:33.928Z,51.10
2023-01-15T05:08:28.154Z,50.90
2023-01-15T05:11:21.354Z,50.90
2023-01-15T05:14:14.240Z,50.70
2023-01-15T05:17:06.996Z,50.40
2023-01-15T05:20:01.432Z,50.10
2023-01-15T05:22:54.335Z,50.10
2023-01-15T05:25:47.418Z,49.90
2023-01-15T05:28:40.223Z,49.60
2023-01-15T05:31:34.403Z,49.20
2023-01-15T05:34:27.521Z,49.10
2023-01-15T05:37:21.782Z,49.00
2023-01-15T05:40:15.678Z,49.00
2023-01-15T05:43:08.439Z,48.90
2023-01-15T05:46:03.291Z,49.10
2023-01-15T05:48:56.104Z,49.00
2023-01-15T05:51:49.768Z,49.00
2023-01-15T05:54:44.490Z,49.20
2023-01-15T05:57:37.255Z,49.30
2023-01-15T06:00:30.677Z,49.40
2023-01-15T06:03:23.956Z,49.90
2023-01-15T06:06:19.725Z,49.30
2023-01-15T06:09:12.378Z,49.20
2023-01-15T06:12:07.125Z,49.20
2023-01-15T06:15:00.502Z,49.10
2023-01-15T06:17:53.380Z,49.10
2023-01-15T06:20:47.276Z,49.20
2023-01-15T06:23:41.304Z,49.30
2023-01-15T06:26:34.924Z,49.60
2023-01-15T06:29:29.988Z,49.30
2023-01-15T06:32:23.445Z,49.20
2023-01-15T06:35:16.642Z,49.30
2023-01-15T06:38:09.754Z,49.00
2023-01-15T06:41:04.957Z,48.70
2023-01-15T06:44:15.658Z,48.40
2023-01-15T06:47:22.268Z,48.40
2023-01-15T06:50:15.933Z,48.50
2023-01-15T06:53:09.213Z,48.20
2023-01-15T06:56:02.900Z,48.00
2023-01-15T06:58:56.842Z,48.00
2023-01-15T07:01:50.506Z,47.90
2023-01-15T07:04:44.608Z,47.90
2023-01-15T07:07:37.788Z,47.80
2023-01-15T07:10:31.337Z,47.90
2023-01-15T07:13:24.317Z,48.10
2023-01-15T07:16:28.562Z,48.30
2023-01-15T07:19:22.140Z,48.40
2023-01-15T07:22:16.955Z,48.20
2023-01-15T07:25:11.603Z,48.10
2023-01-15T07:28:04.507Z,47.90
2023-01-15T07:30:59.670Z,48.00
2023-01-15T07:33:52.388Z,48.10
2023-01-15T07:36:45.630Z,47.90
2023-01-15T07:39:39.909Z,47.80
2023-01-15T07:42:50.892Z,47.60
2023-01-15T07:46:02.698Z,47.60
2023-01-15T07:49:12.600Z,47.40
2023-01-15T07:52:05.499Z,47.50
2023-01-15T07:55:01.029Z,47.50
2023-01-15T07:57:54.712Z,47.40
2023-01-15T08:00:47.861Z,47.60
2023-01-15T08:03:41.562Z,47.50
2023-01-15T08:06:34.724Z,47.70
2023-01-15T08:09:27.497Z,47.70
2023-01-15T08:12:40.393Z,47.70
2023-01-15T08:15:38.636Z,47.60
2023-01-15T08:18:31.411Z,48.40
2023-01-15T08:21:24.560Z,48.00
2023-01-15T08:24:17.603Z,48.00
2023-01-15T08:27:10.513Z,48.20
2023-01-15T08:30:05.997Z,47.90
2023-01-15T08:33:03.528Z,47.70
2023-01-15T08:35:58.614Z,48.50
2023-01-15T08:38:51.541Z,48.20
2023-01-15T08:41:44.727Z,48.30
2023-01-15T08:44:37.457Z,48.30
2023-01-15T08:47:33.125Z,48.10
2023-01-15T08:50:26.621Z,48.00
2023-01-15T08:53:20.694Z,47.90
2023-01-15T08:56:14.555Z,47.90
2023-01-15T08:59:08.736Z,47.90
2023-01-15T09:02:02.191Z,47.70
2023-01-15T09:04:57.260Z,47.50
2023-01-15T09:07:50.533Z,47.50
2023-01-15T09:10:43.290Z,47.70
2023-01-15T09:13:38.123Z,47.60
2023-01-15T09:16:32.769Z,47.70
2023-01-15T09:19:25.646Z,47.70
2023-01-15T09:22:19.891Z,47.40
2023-01-15T09:25:13.623Z,47.40
2023-01-15T09:28:06.968Z,47.30
2023-01-15T09:31:00.757Z,46.90
2023-01-15T09:33:53.726Z,47.20
2023-01-15T09:36:46.700Z,47.50
2023-01-15T09:39:41.569Z,47.80
2023-01-15T09:42:45.229Z,48.00
2023-01-15T09:45:46.873Z,48.20
2023-01-15T09:48:55.831Z,48.50
2023-01-15T09:51:56.245Z,48.70
2023-01-15T09:55:00.948Z,48.90
2023-01-15T09:57:59.265Z,49.10
2023-01-15T10:00:53.380Z,49.30
2023-01-15T10:03:50.792Z,49.40
2023-01-15T10:06:46.438Z,49.60
2023-01-15T10:09:41.922Z,49.80
2023-01-15T10:12:39.799Z,50.00
2023-01-15T10:15:39.042Z,50.10
2023-01-15T10:18:32.839Z,50.30
2023-01-15T10:21:36.158Z,50.60
2023-01-15T10:24:38.370Z,50.60
2023-01-15T10:27:33.471Z,50.80
2023-01-15T10:30:37.812Z,51.00
2023-01-15T10:33:56.091Z,50.90
2023-01-15T10:36:54.586Z,50.80
2023-01-15T10:39:58.838Z,50.60
2023-01-15T10:42:58.748Z,50.50
2023-01-15T10:45:56.537Z,50.50
2023-01-15T10:48:54.076Z,50.40
2023-01-15T10:51:51.138Z,50.90
2023-01-15T10:54:49.620Z,50.30
2023-01-15T10:57:54.315Z,50.30
2023-01-15T11:01:03.008Z,50.20
2023-01-15T11:03:56.828Z,50.20
2023-01-15T11:06:49.734Z,50.10
2023-01-15T11:09:43.309Z,50.20
2023-01-15T11:12:54.388Z,50.10
2023-01-15T11:16:06.946Z,50.20
2023-01-15T11:19:29.423Z,50.10
2023-01-15T11:22:22.905Z,50.30
2023-01-15T11:25:25.765Z,50.60
2023-01-15T11:28:21.367Z,50.50
2023-01-15T11:31:16.179Z,50.50
2023-01-15T11:34:22.157Z,50.40
2023-01-15T11:37:15.332Z,50.30
2023-01-15T11:40:18.717Z,50.30
2023-01-15T11:43:39.755Z,50.40
2023-01-15T11:46:59.694Z,50.50
2023-01-15T11:50:12.414Z,50.40
2023-01-15T11:53:11.139Z,50.40
2023-01-15T11:56:07.899Z,50.30
2023-01-15T11:59:03.752Z,50.30
2023-01-15T12:02:03.920Z,50.20
2023-01-15T12:05:01.803Z,50.20
2023-01-15T12:07:58.380Z,50.10
2023-01-15T12:11:17.454Z,50.10
2023-01-15T12:14:44.055Z,50.10
2023-01-15T12:17:58.911Z,50.10
2023-01-15T12:21:02.759Z,50.10
2023-01-15T12:24:08.429Z,50.00
2023-01-15T12:27:17.828Z,50.00
2023-01-15T12:30:20.723Z,50.00
2023-01-15T12:33:24.459Z,50.00
2023-01-15T12:36:23.345Z,50.00
2023-01-15T12:39:21.764Z,50.00
2023-01-15T12:42:37.397Z,50.00
2023-01-15T12:45:34.571Z,49.90
2023-01-15T12:48:33.249Z,49.90
2023-01-15T12:51:35.005Z,49.90
2023-01-15T12:54:34.737Z,49.90
2023-01-15T12:57:35.882Z,50.00
2023-01-15T13:00:34.261Z,50.10
2023-01-15T13:03:31.646Z,50.10
2023-01-15T13:06:28.696Z,50.20
2023-01-15T13:09:33.131Z,50.30
2023-01-15T13:12:28.964Z,50.40
2023-01-15T13:15:26.826Z,50.40
2023-01-15T13:18:27.835Z,50.40
2023-01-15T13:21:21.507Z,50.40
2023-01-15T13:24:34.763Z,50.40
2023-01-15T13:27:39.514Z,50.50
2023-01-15T13:30:42.393Z,50.60
2023-01-15T13:33:41.012Z,50.80
2023-01-15T13:36:40.584Z,50.90
2023-01-15T13:39:41.851Z,51.00
2023-01-15T13:42:35.334Z,51.60
2023-01-15T13:45:37.128Z,50.80
2023-01-15T13:48:35.030Z,51.50
2023-01-15T13:51:30.901Z,50.90
2023-01-15T13:54:26.562Z,51.00
2023-01-15T13:57:33.106Z,50.90
2023-01-15T14:00:31.766Z,51.20
2023-01-15T14:03:29.705Z,51.00
2023-01-15T14:06:22.760Z,50.80
2023-01-15T14:09:29.448Z,50.70
2023-01-15T14:12:37.904Z,50.60
2023-01-15T14:15:46.547Z,50.50
2023-01-15T14:19:05.915Z,50.50
2023-01-15T14:22:15.988Z,50.60
2023-01-15T14:25:24.814Z,50.60
2023-01-15T14:28:37.471Z,50.60
2023-01-15T14:31:58.547Z,50.90
2023-01-15T14:34:56.633Z,51.10
2023-01-15T14:37:54.540Z,51.10
2023-01-15T14:40:59.506Z,51.10
2023-01-15T14:43:55.015Z,50.90
2023-01-15T14:46:48.082Z,50.90
2023-01-15T14:49:49.662Z,50.90
2023-01-15T14:52:46.334Z,50.80
2023-01-15T14:55:47.402Z,50.80
2023-01-15T14:58:48.631Z,50.80
2023-01-15T15:01:46.748Z,50.90
2023-01-15T15:04:44.358Z,50.90
2023-01-15T15:07:42.033Z,50.90
2023-01-15T15:10:39.584Z,50.90
2023-01-15T15:13:37.886Z,50.90
2023-01-15T15:16:33.132Z,51.00
2023-01-15T15:19:34.594Z,51.00
2023-01-15T15:22:32.859Z,51.00
2023-01-15T15:25:29.886Z,51.00
2023-01-15T15:28:22.617Z,51.00
2023-01-15T15:31:16.195Z,51.00
2023-01-15T15:34:18.859Z,51.00
2023-01-15T15:37:18.930Z,51.10
2023-01-15T15:40:17.395Z,51.10
2023-01-15T15:43:34.059Z,51.10
2023-01-15T15:46:46.604Z,51.10
2023-01-15T15:49:41.324Z,51.10
2023-01-15T15:52:36.508Z,51.10
2023-01-15T15:55:39.549Z,51.10
2023-01-15T15:58:37.058Z,51.10
2023-01-15T16:01:30.357Z,51.10
2023-01-15T16:04:24.873Z,51.10
2023-01-15T16:07:25.290Z,51.10
2023-01-15T16:10:31.519Z,51.70
2023-01-15T16:13:28.198Z,51.80
2023-01-15T16:16:22.434Z,51.10
2023-01-15T16:19:20.519Z,51.10
2023-01-15T16:22:19.654Z,51.20
2023-01-15T16:25:26.005Z,51.20
2023-01-15T16:28:25.706Z,51.10
2023-01-15T16:31:20.138Z,51.10
2023-01-15T16:34:20.098Z,51.10
2023-01-15T16:37:26.352Z,51.10
2023-01-15T16:40:28.892Z,51.10
2023-01-15T16:43:24.760Z,51.20
2023-01-15T16:46:20.574Z,51.20
2023-01-15T16:49:27.288Z,51.20
2023-01-15T16:52:51.289Z,51.10
2023-01-15T16:55:47.391Z,51.10
2023-01-15T16:58:42.253Z,51.10
2023-01-15T17:01:42.396Z,51.10
2023-01-15T17:04:37.837Z,51.00
2023-01-15T17:07:36.871Z,51.00
2023-01-15T17:10:31.469Z,51.00
2023-01-15T17:13:34.679Z,51.00
2023-01-15T17:16:28.034Z,51.00
2023-01-15T17:19:21.571Z,51.00
2023-01-15T17:22:17.571Z,51.00
2023-01-15T17:25:23.729Z,51.00
2023-01-15T17:28:18.976Z,51.00
2023-01-15T17:31:25.377Z,51.00
2023-01-15T17:34:23.386Z,51.00
2023-01-15T17:37:17.441Z,51.00
2023-01-15T17:40:13.142Z,51.00
2023-01-15T17:43:05.911Z,51.00
2023-01-15T17:46:00.037Z,51.00
2023-01-15T17:48:54.333Z,50.90
2023-01-15T17:51:48.012Z,50.90
2023-01-15T17:54:58.134Z,51.00
2023-01-15T17:58:07.982Z,51.00
2023-01-15T18:01:19.605Z,51.00
2023-01-15T18:04:36.914Z,51.00
2023-01-15T18:07:36.002Z,51.00
2023-01-15T18:10:29.098Z,50.90
2023-01-15T18:13:22.318Z,50.90
2023-01-15T18:16:16.082Z,50.90
2023-01-15T18:19:09.461Z,50.90
2023-01-15T18:22:04.544Z,50.90
2023-01-15T18:24:58.161Z,50.90
2023-01-15T18:27:51.282Z,50.90
2023-01-15T18:30:44.074Z,51.00
2023-01-15T18:33:36.965Z,50.90
2023-01-15T18:36:30.628Z,50.90
2023-01-15T18:39:25.423Z,50.90
2023-01-15T18:42:36.376Z,50.90
2023-01-15T18:45:47.384Z,50.90
2023-01-15T18:48:40.985Z,50.90
2023-01-15T18:51:34.209Z,50.90
2023-01-15T18:54:28.621Z,50.90
2023-01-15T18:57:22.363Z,50.90
2023-01-15T19:00:17.836Z,50.90
2023-01-15T19:03:14.031Z,50.90
2023-01-15T19:06:09.026Z,50.90
2023-01-15T19:09:02.385Z,51.30
2023-01-15T19:11:57.819Z,50.90
2023-01-15T19:15:08.359Z,50.90
2023-01-15T19:18:19.742Z,51.00
2023-01-15T19:21:13.039Z,51.00
2023-01-15T19:24:07.510Z,50.90
2023-01-15T19:27:02.507Z,51.00
2023-01-15T19:29:56.497Z,51.00
2023-01-15T19:32:49.991Z,51.00
2023-01-15T19:35:43.209Z,51.00
2023-01-15T19:38:38.031Z,51.00
2023-01-15T19:41:48.360Z,51.10
2023-01-15T19:45:00.986Z,51.10
2023-01-15T19:48:11.553Z,51.10
2023-01-15T19:51:05.013Z,51.10
2023-01-15T19:54:02.415Z,51.10
2023-01-15T19:56:55.918Z,51.00
2023-01-15T19:59:50.671Z,51.00
2023-01-15T20:02:43.930Z,51.00
2023-01-15T20:05:37.177Z,51.10
2023-01-15T20:08:32.000Z,51.10
2023-01-15T20:11:45.115Z,51.00
2023-01-15T20:14:37.036Z,51.00
2023-01-15T20:17:32.043Z,51.00
2023-01-15T20:20:26.110Z,51.00
2023-01-15T20:23:18.847Z,51.00
2023-01-15T20:26:14.501Z,51.00
2023-01-15T20:29:08.714Z,51.00
2023-01-15T20:32:02.041Z,51.00
2023-01-15T20:34:56.335Z,51.00
2023-01-15T20:37:49.977Z,51.00
2023-01-15T20:40:43.087Z,51.00
2023-01-15T20:43:53.441Z,51.00
2023-01-15T20:46:47.224Z,51.00
2023-01-15T20:49:39.377Z,51.00
2023-01-15T20:52:33.275Z,51.70
2023-01-15T20:55:31.189Z,51.00
2023-01-15T20:58:26.557Z,51.00
2023-01-15T21:01:20.504Z,51.00
2023-01-15T21:04:14.049Z,51.00
2023-01-15T21:07:07.048Z,51.00
2023-01-15T21:10:01.735Z,51.00
2023-01-15T21:12:55.121Z,51.00
2023-01-15T21:15:55.406Z,50.90
2023-01-15T21:18:49.118Z,50.90
2023-01-15T21:21:42.102Z,51.00
2023-01-15T21:24:35.476Z,50.90
2023-01-15T21:27:32.041Z,50.90
2023-01-15T21:30:25.907Z,50.90
2023-01-15T21:33:19.409Z,50.90
2023-01-15T21:36:14.009Z,50.90
2023-01-15T21:39:07.241Z,50.90
2023-01-15T21:42:17.687Z,50.90
2023-01-15T21:45:12.906Z,50.90
2023-01-15T21:48:06.428Z,50.90
2023-01-15T21:50:59.226Z,50.90
2023-01-15T21:53:51.957Z,50.90
2023-01-15T21:56:45.845Z,50.90
2023-01-15T21:59:40.827Z,51.60
2023-01-15T22:02:37.088Z,50.90
2023-01-15T22:05:29.926Z,50.90
2023-01-15T22:08:23.549Z,50.90
2023-01-15T22:11:17.190Z,50.90
2023-01-15T22:14:11.413Z,50.90
2023-01-15T22:17:05.437Z,50.90
2023-01-15T22:19:59.420Z,50.90
2023-01-15T22:22:52.132Z,50.90
2023-01-15T22:25:46.176Z,50.90
2023-01-15T22:28:39.068Z,50.90
2023-01-15T22:31:32.780Z,50.80
2023-01-15T22:34:28.028Z,50.80
2023-01-15T22:37:25.547Z,50.90
2023-01-15T22:40:19.261Z,50.80
2023-01-15T22:43:12.797Z,50.80
2023-01-15T22:46:10.567Z,50.80
2023-01-15T22:49:04.828Z,50.70
2023-01-15T22:51:58.370Z,50.70
2023-01-15T22:54:52.622Z,50.60
2023-01-15T22:57:47.538Z,50.80
2023-01-15T23:00:41.622Z,50.80
2023-01-15T23:03:36.033Z,50.80
2023-01-15T23:06:29.795Z,50.20
2023-01-15T23:09:24.592Z,49.80
2023-01-15T23:12:19.568Z,49.50
2023-01-15T23:15:15.910Z,48.20
2023-01-15T23:18:09.252Z,48.70
2023-01-15T23:21:04.417Z,48.30
2023-01-15T23:23:57.886Z,48.80
2023-01-15T23:26:50.962Z,48.00
2023-01-15T23:29:45.889Z,48.00
2023-01-15T23:32:40.436Z,47.80
2023-01-15T23:35:33.950Z,47.60
2023-01-15T23:38:28.056Z,47.30
2023-01-15T23:41:44.687Z,47.50
2023-01-15T23:44:55.705Z,47.20
2023-01-15T23:47:50.659Z,47.10
2023-01-15T23:50:44.343Z,46.80
2023-01-15T23:53:37.303Z,46.80
2023-01-15T23:56:31.656Z,46.50
2023-01-15T23:59:25.851Z,46.50
